Time;durP1;ratioP1;P1;durP2;ratioP2;P2;SDS_P1;SDS_P2;PMS_P1;PMS_P2;Temp;Humidity;BMP_temperature;BMP_pressure;BME280_temperature;BME280_humidity;BME280_pressure;Samples;Min_cycle;Max_cycle;Signal;HPM_P1;HPM_P2
2022/07/12 00:02:24;;;;;;;10.80;8.40;;;9.10;99.90;;;;;;5075933;28;20381;-79
2022/07/12 00:04:52;;;;;;;11.23;8.65;;;9.10;99.90;;;;;;5082991;28;20430;-79
2022/07/12 00:07:20;;;;;;;10.38;7.95;;;9.10;99.90;;;;;;5073877;28;20377;-81
2022/07/12 00:09:48;;;;;;;12.02;8.32;;;9.20;99.90;;;;;;5075366;28;20947;-83
2022/07/12 00:12:15;;;;;;;10.73;8.18;;;9.30;99.90;;;;;;5075119;28;20378;-81
2022/07/12 00:14:42;;;;;;;11.43;8.27;;;9.50;99.90;;;;;;5075256;28;20370;-83
2022/07/12 00:17:10;;;;;;;11.55;8.60;;;9.60;99.90;;;;;;5075201;28;20389;-81
2022/07/12 00:19:37;;;;;;;13.13;8.15;;;9.70;99.90;;;;;;5075085;28;20394;-83
2022/07/12 00:22:04;;;;;;;12.97;7.97;;;9.70;99.90;;;;;;5075254;28;20892;-81
2022/07/12 00:24:31;;;;;;;10.65;8.43;;;9.70;99.90;;;;;;5075010;28;20425;-85
2022/07/12 00:26:58;;;;;;;11.85;8.90;;;9.90;99.90;;;;;;5073973;28;20386;-85
2022/07/12 00:29:25;;;;;;;11.75;9.85;;;9.90;99.90;;;;;;5075028;28;20401;-82
2022/07/12 00:31:52;;;;;;;13.57;10.50;;;10.00;99.90;;;;;;5074982;28;20406;-83
2022/07/12 00:34:19;;;;;;;12.57;10.93;;;10.20;99.90;;;;;;5074705;28;20382;-81
2022/07/12 00:36:47;;;;;;;14.77;9.75;;;10.40;99.90;;;;;;5074903;28;20378;-82
2022/07/12 00:39:14;;;;;;;10.55;9.45;;;10.40;99.90;;;;;;5073528;28;20378;-80
2022/07/12 00:41:42;;;;;;;13.20;11.47;;;10.60;99.90;;;;;;5075199;28;20440;-85
2022/07/12 00:44:09;;;;;;;12.75;9.60;;;10.90;99.90;;;;;;5074588;28;20730;-82
2022/07/12 00:46:37;;;;;;;9.95;8.95;;;11.10;99.90;;;;;;5074697;28;20382;-79
2022/07/12 00:49:04;;;;;;;12.45;9.15;;;11.10;99.90;;;;;;5074747;28;20374;-84
2022/07/12 00:51:31;;;;;;;9.07;7.90;;;11.00;99.90;;;;;;5074862;28;20922;-89
2022/07/12 00:53:59;;;;;;;11.00;9.02;;;11.00;99.90;;;;;;5074685;28;20378;-86
2022/07/12 00:56:26;;;;;;;10.77;7.70;;;11.00;99.90;;;;;;5074919;28;20379;-79
2022/07/12 00:58:53;;;;;;;9.15;8.23;;;11.10;99.90;;;;;;5075001;28;20370;-82
2022/07/12 01:01:22;;;;;;;13.43;9.07;;;11.00;99.90;;;;;;5074701;28;20381;-80
2022/07/12 01:03:50;;;;;;;10.40;8.77;;;11.00;99.90;;;;;;5073396;28;20385;-87
2022/07/12 01:06:20;;;;;;;9.88;7.90;;;11.10;99.90;;;;;;5074287;28;20398;-84
2022/07/12 01:08:47;;;;;;;8.45;6.80;;;11.30;99.90;;;;;;5074424;28;20453;-86
2022/07/12 01:11:16;;;;;;;9.87;8.00;;;11.30;99.90;;;;;;5074253;28;20404;-85
2022/07/12 01:13:45;;;;;;;8.98;8.05;;;11.50;99.90;;;;;;5072936;28;20366;-80
2022/07/12 01:16:14;;;;;;;10.93;7.75;;;11.60;99.90;;;;;;5074212;28;20366;-86
2022/07/12 01:18:42;;;;;;;9.20;6.35;;;11.70;99.90;;;;;;5074105;28;20850;-81
2022/07/12 01:21:13;;;;;;;7.60;6.22;;;11.90;99.90;;;;;;5074104;28;20378;-87
2022/07/12 01:23:40;;;;;;;7.20;5.80;;;12.00;99.90;;;;;;5074679;28;20393;-87
2022/07/12 01:26:07;;;;;;;7.72;5.80;;;12.20;99.90;;;;;;5072805;28;20408;-85
2022/07/12 01:28:35;;;;;;;8.15;5.47;;;12.30;99.90;;;;;;5073950;28;20722;-80
2022/07/12 01:31:02;;;;;;;9.55;5.40;;;12.40;99.90;;;;;;5073990;28;20374;-83
2022/07/12 01:33:30;;;;;;;7.85;5.80;;;12.60;99.90;;;;;;5073547;28;20491;-86
2022/07/12 01:35:58;;;;;;;7.43;5.40;;;12.70;99.90;;;;;;5073820;28;20378;-86
2022/07/12 01:38:25;;;;;;;7.82;6.30;;;12.80;99.90;;;;;;5074050;28;20410;-89
2022/07/12 01:40:52;;;;;;;8.13;5.78;;;12.90;99.90;;;;;;5073741;28;20461;-87
2022/07/12 01:43:19;;;;;;;7.63;6.07;;;13.00;99.90;;;;;;5072491;28;20378;-86
2022/07/12 01:45:46;;;;;;;8.85;6.30;;;13.20;99.90;;;;;;5073730;28;20427;-85
2022/07/12 01:48:14;;;;;;;7.25;6.05;;;13.20;99.90;;;;;;5073652;28;20366;-88
2022/07/12 01:50:42;;;;;;;6.05;5.13;;;13.20;99.90;;;;;;5073717;28;20386;-89
2022/07/12 01:53:11;;;;;;;6.18;4.70;;;13.30;99.90;;;;;;5073811;28;20374;-81
2022/07/12 01:55:38;;;;;;;5.63;4.20;;;13.50;99.90;;;;;;5073573;28;20503;-85
2022/07/12 01:58:05;;;;;;;5.45;4.25;;;13.80;99.90;;;;;;5073588;28;20374;-84
2022/07/12 02:00:32;;;;;;;5.95;3.97;;;14.00;99.90;;;;;;5074298;28;20382;-82
2022/07/12 02:02:59;;;;;;;5.05;3.53;;;14.20;99.90;;;;;;5073427;28;20370;-82
2022/07/12 02:05:26;;;;;;;6.33;3.50;;;14.20;99.90;;;;;;5073210;28;20831;-82
2022/07/12 02:07:54;;;;;;;3.88;2.88;;;14.20;99.90;;;;;;5073298;28;20746;-82
2022/07/12 02:10:22;;;;;;;3.20;2.30;;;14.30;99.90;;;;;;5073120;28;20382;-82
2022/07/12 02:12:49;;;;;;;3.60;2.20;;;14.40;99.90;;;;;;5073837;28;20462;-82
2022/07/12 02:15:16;;;;;;;3.53;2.30;;;14.50;99.90;;;;;;5073332;28;20381;-83
2022/07/12 02:17:43;;;;;;;4.38;2.60;;;14.50;99.90;;;;;;5072858;28;20431;-86
2022/07/12 02:20:12;;;;;;;4.80;2.30;;;14.50;99.90;;;;;;5077741;28;20373;-81
2022/07/12 02:22:40;;;;;;;3.28;2.00;;;14.50;99.90;;;;;;5085941;28;20381;-82
2022/07/12 02:25:07;;;;;;;2.45;1.77;;;14.50;99.90;;;;;;5086277;28;20405;-82
2022/07/12 02:27:34;;;;;;;3.90;1.90;;;14.50;99.90;;;;;;5080036;28;20358;-82
2022/07/12 02:30:02;;;;;;;3.00;1.90;;;14.60;99.90;;;;;;5074530;28;20465;-86
2022/07/12 02:32:29;;;;;;;2.58;1.60;;;14.50;99.90;;;;;;5073447;28;20729;-87
2022/07/12 02:34:56;;;;;;;2.70;1.60;;;14.60;99.90;;;;;;5073602;28;20866;-85
2022/07/12 02:37:24;;;;;;;2.95;1.50;;;14.70;99.90;;;;;;5073785;28;20496;-83
2022/07/12 02:39:51;;;;;;;2.30;1.30;;;14.70;99.90;;;;;;5073388;28;20862;-84
2022/07/12 02:42:18;;;;;;;2.67;1.27;;;14.80;99.90;;;;;;5073353;28;20378;-84
2022/07/12 02:44:45;;;;;;;1.67;1.20;;;14.90;99.90;;;;;;5072800;28;20390;-83
2022/07/12 02:47:12;;;;;;;1.67;1.13;;;14.90;99.90;;;;;;5072878;28;20461;-87
2022/07/12 02:49:39;;;;;;;1.58;1.20;;;15.10;99.90;;;;;;5072778;28;20367;-86
2022/07/12 02:52:06;;;;;;;2.05;1.20;;;15.00;99.90;;;;;;5072802;28;20393;-89
2022/07/12 02:54:36;;;;;;;1.17;1.07;;;14.90;99.90;;;;;;5072718;28;20849;-87
2022/07/12 02:57:03;;;;;;;2.20;1.23;;;14.90;99.90;;;;;;5072786;28;20847;-84
2022/07/12 02:59:31;;;;;;;1.60;1.20;;;15.10;99.90;;;;;;5073239;28;20873;-82
2022/07/12 03:01:58;;;;;;;2.97;1.40;;;15.30;99.90;;;;;;5072479;28;20366;-86
2022/07/12 03:04:25;;;;;;;1.75;1.10;;;15.40;99.90;;;;;;5072491;28;20386;-87
2022/07/12 03:06:52;;;;;;;3.05;1.40;;;15.30;99.30;;;;;;5072460;28;20385;-87
2022/07/12 03:09:19;;;;;;;4.07;1.70;;;15.20;98.90;;;;;;5072370;28;20378;-86
2022/07/12 03:11:46;;;;;;;2.80;1.90;;;15.10;99.40;;;;;;5072434;28;20385;-85
2022/07/12 03:14:13;;;;;;;3.25;1.98;;;15.10;99.90;;;;;;5072493;28;20369;-87
2022/07/12 03:16:42;;;;;;;3.85;1.70;;;15.10;99.30;;;;;;5072545;28;20481;-82
2022/07/12 03:19:09;;;;;;;3.53;2.28;;;15.00;99.90;;;;;;5072617;28;20377;-84
2022/07/12 03:21:36;;;;;;;3.05;2.20;;;15.10;99.30;;;;;;5072614;28;20371;-85
2022/07/12 03:24:04;;;;;;;3.10;1.80;;;15.10;99.90;;;;;;5072768;28;20370;-84
2022/07/12 03:26:31;;;;;;;2.38;1.70;;;15.10;99.90;;;;;;5072484;28;20473;-82
2022/07/12 03:29:00;;;;;;;2.83;1.80;;;15.30;99.90;;;;;;5074360;28;20374;-86
2022/07/12 03:31:28;;;;;;;3.97;1.70;;;15.30;99.50;;;;;;5076151;28;20406;-82
2022/07/12 03:33:55;;;;;;;5.50;2.60;;;15.30;99.10;;;;;;5074895;28;20411;-82
2022/07/12 03:36:22;;;;;;;3.53;2.25;;;15.40;98.80;;;;;;5076768;28;20383;-89
2022/07/12 03:38:49;;;;;;;2.78;1.98;;;15.40;98.90;;;;;;5076091;28;20381;-89
2022/07/12 03:41:16;;;;;;;3.85;1.85;;;15.60;98.30;;;;;;5075277;28;20918;-83
2022/07/12 03:43:43;;;;;;;3.80;1.73;;;16.00;98.30;;;;;;5075965;28;20436;-83
2022/07/12 03:46:11;;;;;;;3.57;1.60;;;16.30;95.30;;;;;;5075974;28;20955;-83
2022/07/12 03:48:38;;;;;;;4.70;1.50;;;16.40;95.40;;;;;;5075786;28;20374;-86
2022/07/12 03:51:05;;;;;;;7.57;1.65;;;16.40;93.80;;;;;;5075928;28;20431;-83
2022/07/12 03:53:32;;;;;;;5.53;1.40;;;16.50;93.40;;;;;;5075755;28;20370;-88
2022/07/12 03:55:59;;;;;;;4.45;1.58;;;16.50;93.50;;;;;;5075782;28;20374;-86
2022/07/12 03:58:26;;;;;;;2.67;1.50;;;16.50;91.80;;;;;;5075824;28;20366;-82
2022/07/12 04:00:54;;;;;;;7.07;1.33;;;16.30;91.70;;;;;;5075915;28;20734;-82
2022/07/12 04:03:21;;;;;;;3.30;0.88;;;16.10;92.10;;;;;;5075621;28;20461;-87
2022/07/12 04:05:48;;;;;;;0.90;0.60;;;15.90;87.80;;;;;;5075906;28;20411;-85
2022/07/12 04:08:16;;;;;;;0.98;0.60;;;15.90;83.50;;;;;;5075925;28;20374;-86
2022/07/12 04:10:43;;;;;;;2.15;0.80;;;15.80;80.80;;;;;;5075719;28;20761;-86
2022/07/12 04:13:10;;;;;;;3.35;0.88;;;15.70;81.10;;;;;;5075506;28;20382;-87
2022/07/12 04:15:37;;;;;;;1.50;0.70;;;15.60;83.60;;;;;;5075355;28;20397;-86
2022/07/12 04:18:05;;;;;;;4.03;1.00;;;15.70;83.20;;;;;;5075428;28;20404;-87
2022/07/12 04:20:32;;;;;;;5.27;1.03;;;16.00;80.60;;;;;;5075119;28;20381;-81
2022/07/12 04:22:59;;;;;;;3.95;1.02;;;16.10;80.40;;;;;;5076336;28;20695;-82
2022/07/12 04:25:26;;;;;;;3.40;1.00;;;16.10;79.50;;;;;;5074934;28;20398;-83
2022/07/12 04:27:55;;;;;;;1.80;1.02;;;16.00;84.20;;;;;;5075138;28;20453;-87
2022/07/12 04:30:22;;;;;;;6.10;1.00;;;15.90;82.50;;;;;;5075021;28;20374;-84
2022/07/12 04:32:49;;;;;;;6.03;1.20;;;15.90;83.70;;;;;;5074725;28;20371;-83
2022/07/12 04:35:16;;;;;;;4.65;1.30;;;16.00;82.60;;;;;;5076051;28;20703;-83
2022/07/12 04:37:43;;;;;;;4.20;1.20;;;16.10;79.70;;;;;;5074850;28;20369;-85
2022/07/12 04:40:11;;;;;;;4.22;1.15;;;16.10;77.40;;;;;;5074302;28;20382;-88
2022/07/12 04:42:38;;;;;;;3.33;1.17;;;16.20;78.60;;;;;;5074930;28;20850;-81
2022/07/12 04:45:06;;;;;;;5.35;1.38;;;16.20;76.20;;;;;;5074730;28;20393;-90
2022/07/12 04:47:36;;;;;;;4.18;1.20;;;16.40;76.80;;;;;;5074742;28;20461;-87
2022/07/12 04:50:08;;;;;;;5.97;1.13;;;17.00;74.60;;;;;;5073429;28;20862;-88
2022/07/12 04:52:36;;;;;;;2.95;0.90;;;17.40;72.40;;;;;;5075016;28;20431;-87
2022/07/12 04:55:03;;;;;;;3.38;1.00;;;17.60;71.40;;;;;;5074782;28;20861;-82
2022/07/12 04:57:31;;;;;;;3.07;1.10;;;17.90;71.30;;;;;;5074690;28;20397;-82
2022/07/12 04:59:58;;;;;;;4.60;1.05;;;18.20;70.20;;;;;;5074618;28;20461;-82
2022/07/12 05:02:25;;;;;;;2.67;1.13;;;18.60;67.70;;;;;;5074472;28;20375;-89
2022/07/12 05:04:52;;;;;;;9.07;6.43;;;18.40;66.50;;;;;;5074381;28;20424;-82
2022/07/12 05:07:19;;;;;;;4.50;3.77;;;17.80;67.60;;;;;;5073225;28;20460;-84
2022/07/12 05:09:46;;;;;;;2.30;1.10;;;17.00;69.20;;;;;;5074371;28;20382;-85
2022/07/12 05:12:13;;;;;;;2.97;1.08;;;16.50;70.90;;;;;;5074454;28;20444;-83
2022/07/12 05:14:41;;;;;;;5.22;1.00;;;16.10;73.40;;;;;;5074688;28;20463;-88
2022/07/12 05:17:08;;;;;;;2.17;0.80;;;15.70;75.00;;;;;;5075069;28;20396;-81
2022/07/12 05:19:35;;;;;;;2.65;0.98;;;15.60;75.70;;;;;;5077596;28;20466;-85
2022/07/12 05:22:02;;;;;;;4.20;0.75;;;15.60;75.90;;;;;;5076428;28;20412;-83
2022/07/12 05:27:51;;;;;;;1.80;0.50;;;15.70;72.10;;;;;;5074772;28;20448;-86
2022/07/12 05:30:18;;;;;;;2.40;0.45;;;15.70;72.70;;;;;;5074545;28;20511;-88
2022/07/12 05:32:45;;;;;;;0.98;0.40;;;15.70;72.90;;;;;;5074100;28;20374;-86
2022/07/12 05:35:13;;;;;;;2.20;0.50;;;15.70;72.60;;;;;;5074474;28;20841;-83
2022/07/12 05:37:40;;;;;;;1.75;0.65;;;15.70;72.50;;;;;;5074558;28;20382;-85
2022/07/12 05:40:08;;;;;;;0.70;0.50;;;15.70;74.50;;;;;;5074368;28;20370;-84
2022/07/12 05:42:35;;;;;;;1.20;0.57;;;15.60;75.70;;;;;;5074049;28;20378;-90
2022/07/12 05:45:04;;;;;;;2.67;0.60;;;15.60;77.40;;;;;;5072628;28;20877;-84
2022/07/12 05:47:31;;;;;;;0.73;0.50;;;15.60;77.60;;;;;;5074012;28;20386;-82
2022/07/12 05:49:58;;;;;;;0.70;0.50;;;15.70;75.30;;;;;;5073804;28;20435;-84
2022/07/12 05:55:10;;;;;;;1.08;0.50;;;15.60;74.10;;;;;;5074432;28;20373;-85
2022/07/12 05:57:40;;;;;;;1.40;0.43;;;15.50;75.90;;;;;;5073638;28;20850;-83
2022/07/12 06:00:08;;;;;;;1.48;0.40;;;15.50;76.70;;;;;;5073631;28;20381;-84
2022/07/12 06:02:35;;;;;;;1.08;0.40;;;15.50;76.90;;;;;;5073288;28;20377;-84
2022/07/12 06:05:02;;;;;;;1.15;0.40;;;15.50;77.80;;;;;;5073300;28;20402;-84
2022/07/12 06:07:29;;;;;;;2.35;0.52;;;15.40;76.60;;;;;;5073427;28;20404;-89
2022/07/12 06:09:56;;;;;;;1.90;0.60;;;15.40;77.10;;;;;;5073317;28;20401;-84
2022/07/12 06:12:23;;;;;;;1.95;0.50;;;15.30;77.00;;;;;;5073130;28;20374;-84
2022/07/12 06:14:50;;;;;;;2.57;0.67;;;15.20;78.50;;;;;;5073370;28;20366;-86
2022/07/12 06:17:21;;;;;;;2.95;0.70;;;15.10;78.60;;;;;;5073352;28;20370;-87
2022/07/12 06:19:49;;;;;;;1.08;0.40;;;14.90;79.30;;;;;;5073432;28;20362;-84
2022/07/12 06:22:16;;;;;;;1.35;0.70;;;14.80;81.50;;;;;;5073139;28;20374;-86
2022/07/12 06:24:43;;;;;;;1.40;0.97;;;14.60;82.70;;;;;;5073783;28;20485;-86
2022/07/12 06:27:10;;;;;;;1.90;1.00;;;14.40;85.00;;;;;;5073315;28;20417;-89
2022/07/12 06:29:37;;;;;;;3.40;1.10;;;14.20;87.50;;;;;;5073219;28;20501;-84
2022/07/12 06:32:05;;;;;;;1.55;1.10;;;14.00;90.00;;;;;;5071710;28;20684;-88
2022/07/12 06:34:32;;;;;;;2.38;1.17;;;13.80;91.90;;;;;;5072853;28;20446;-84
2022/07/12 06:36:59;;;;;;;2.85;1.17;;;13.70;96.00;;;;;;5072876;28;20374;-84
2022/07/12 06:39:26;;;;;;;2.58;1.08;;;13.70;98.30;;;;;;5073042;28;20370;-89
2022/07/12 06:41:53;;;;;;;1.55;1.10;;;13.70;99.90;;;;;;5073041;28;20382;-91
2022/07/12 06:44:20;;;;;;;1.70;1.00;;;13.60;99.90;;;;;;5072671;28;20370;-91
2022/07/12 06:46:47;;;;;;;3.15;1.00;;;13.40;99.90;;;;;;5072599;28;20386;-84
2022/07/12 06:49:14;;;;;;;1.30;1.00;;;13.20;99.90;;;;;;5071543;28;20746;-83
2022/07/12 06:51:41;;;;;;;2.13;1.33;;;13.10;99.90;;;;;;5074196;28;20378;-89
2022/07/12 06:54:08;;;;;;;2.78;1.10;;;13.00;99.90;;;;;;5073093;28;20362;-83
2022/07/12 06:56:36;;;;;;;1.70;1.00;;;12.90;99.90;;;;;;5073412;28;20460;-91
2022/07/12 06:59:03;;;;;;;2.92;1.10;;;12.80;99.90;;;;;;5073296;28;20382;-88
2022/07/12 07:01:30;;;;;;;3.50;1.20;;;12.70;99.90;;;;;;5072275;28;20384;-83
2022/07/12 07:03:57;;;;;;;2.30;1.30;;;12.60;99.90;;;;;;5072647;28;20814;-92
2022/07/12 07:06:24;;;;;;;2.88;1.20;;;12.50;99.90;;;;;;5072460;28;20442;-83
2022/07/12 07:08:51;;;;;;;1.85;1.40;;;12.30;99.90;;;;;;5070906;28;20880;-89
2022/07/12 07:11:18;;;;;;;1.97;1.40;;;12.20;99.90;;;;;;5072523;28;20405;-82
2022/07/12 07:13:45;;;;;;;2.45;1.10;;;12.10;99.90;;;;;;5072862;28;20374;-88
2022/07/12 07:16:13;;;;;;;3.13;1.80;;;12.00;99.90;;;;;;5072935;28;20684;-90
2022/07/12 07:18:41;;;;;;;5.00;3.63;;;11.80;99.90;;;;;;5072677;28;20377;-86
2022/07/12 07:21:08;;;;;;;6.90;3.78;;;11.80;99.90;;;;;;5073372;28;20964;-84
2022/07/12 07:23:35;;;;;;;5.65;4.00;;;11.70;99.90;;;;;;5073107;28;20453;-83
2022/07/12 07:26:02;;;;;;;5.07;3.33;;;11.60;99.90;;;;;;5077598;28;20406;-81
2022/07/12 07:28:29;;;;;;;5.30;3.55;;;11.60;99.90;;;;;;5079164;28;20441;-84
2022/07/12 07:30:57;;;;;;;6.30;3.10;;;11.60;99.90;;;;;;5078944;28;20374;-85
2022/07/12 07:33:25;;;;;;;4.82;3.50;;;11.80;99.90;;;;;;5080055;28;20394;-89
2022/07/12 07:35:53;;;;;;;7.13;4.13;;;11.70;99.90;;;;;;5073244;28;20467;-84
2022/07/12 07:38:22;;;;;;;8.10;4.27;;;11.70;99.90;;;;;;5073881;28;20397;-85
2022/07/12 07:40:49;;;;;;;7.50;4.32;;;11.60;99.90;;;;;;5074890;28;20859;-88
2022/07/12 07:43:16;;;;;;;5.68;3.83;;;11.60;99.90;;;;;;5074029;28;20377;-87
2022/07/12 07:45:43;;;;;;;5.20;4.30;;;11.60;99.90;;;;;;5072511;28;20390;-83
2022/07/12 07:48:10;;;;;;;19.58;10.02;;;11.60;99.90;;;;;;5072395;28;20496;-88
2022/07/12 07:50:38;;;;;;;16.63;13.77;;;11.60;99.90;;;;;;5070867;28;20908;-82
2022/07/12 07:53:05;;;;;;;15.82;13.43;;;11.60;99.90;;;;;;5073335;28;20470;-89
2022/07/12 07:55:32;;;;;;;22.02;17.85;;;11.60;99.90;;;;;;5073173;28;20391;-89
2022/07/12 07:58:00;;;;;;;32.45;29.13;;;11.60;99.90;;;;;;5072988;28;20619;-85
2022/07/12 08:00:27;;;;;;;33.90;27.00;;;11.60;99.90;;;;;;5072827;28;20382;-85
2022/07/12 08:02:55;;;;;;;18.35;14.02;;;11.60;99.90;;;;;;5072485;28;20416;-84
2022/07/12 08:05:23;;;;;;;12.88;9.60;;;11.60;99.90;;;;;;5072815;28;20393;-82
2022/07/12 08:07:50;;;;;;;11.90;7.82;;;11.70;99.90;;;;;;5073064;28;20382;-84
2022/07/12 08:10:18;;;;;;;12.57;7.53;;;11.60;99.90;;;;;;5073110;28;20412;-89
2022/07/12 08:12:45;;;;;;;11.57;7.40;;;11.60;99.90;;;;;;5073120;28;20465;-83
2022/07/12 08:15:13;;;;;;;18.08;13.30;;;11.60;99.90;;;;;;5076826;28;20377;-91
2022/07/12 08:17:40;;;;;;;18.13;13.60;;;11.60;99.90;;;;;;5078802;28;20897;-83
2022/07/12 08:20:07;;;;;;;21.55;12.63;;;11.50;99.90;;;;;;5076494;28;20870;-89
2022/07/12 08:22:42;;;;;;;17.88;10.00;;;11.40;99.90;;;;;;5078019;28;20378;-89
2022/07/12 08:25:09;;;;;;;15.63;9.98;;;11.40;99.90;;;;;;5076839;28;20394;-85
2022/07/12 08:27:37;;;;;;;13.55;9.70;;;11.30;99.90;;;;;;5077005;28;20386;-82
2022/07/12 08:30:04;;;;;;;13.00;9.02;;;11.20;99.90;;;;;;5076432;28;20385;-84
2022/07/12 08:32:31;;;;;;;14.00;8.73;;;11.20;99.90;;;;;;5077393;28;20752;-84
2022/07/12 08:34:59;;;;;;;14.73;8.48;;;11.10;99.90;;;;;;5076053;28;20393;-84
2022/07/12 08:37:26;;;;;;;12.43;8.60;;;11.10;99.90;;;;;;5076327;28;20374;-86
2022/07/12 08:39:53;;;;;;;16.70;9.00;;;11.10;99.90;;;;;;5076717;28;20374;-85
2022/07/12 08:42:20;;;;;;;13.50;8.73;;;11.00;99.90;;;;;;5076305;28;20745;-87
2022/07/12 08:44:57;;;;;;;17.83;10.20;;;11.00;99.90;;;;;;5076562;28;20437;-90
2022/07/12 08:47:24;;;;;;;15.77;8.80;;;11.00;99.90;;;;;;5076960;28;20389;-84
2022/07/12 08:50:18;;;;;;;19.52;9.45;;;11.10;99.90;;;;;;5077324;28;20408;-84
2022/07/12 08:52:48;;;;;;;14.85;8.93;;;11.00;99.90;;;;;;5075081;28;20378;-88
2022/07/12 08:58:37;;;;;;;11.45;7.57;;;11.10;99.90;;;;;;5075814;28;20423;-83
2022/07/12 09:01:04;;;;;;;14.07;8.00;;;11.10;99.90;;;;;;5075415;28;20378;-84
2022/07/12 09:03:31;;;;;;;15.00;8.50;;;11.10;99.90;;;;;;5075788;28;20373;-84
2022/07/12 09:05:59;;;;;;;11.37;8.00;;;11.10;99.90;;;;;;5075069;28;20398;-82
2022/07/12 09:08:30;;;;;;;12.85;8.00;;;11.30;99.90;;;;;;5075491;28;20461;-87
2022/07/12 09:11:05;;;;;;;12.50;8.80;;;11.00;99.90;;;;;;5075974;28;20459;-84
2022/07/12 09:13:54;;;;;;;15.25;8.90;;;10.90;99.90;;;;;;5075246;28;20365;-89
2022/07/12 09:16:24;;;;;;;14.38;9.35;;;11.00;99.90;;;;;;5073634;28;20397;-87
2022/07/12 09:19:11;;;;;;;14.30;8.40;;;10.80;99.90;;;;;;5075233;28;20378;-87
2022/07/12 09:21:43;;;;;;;13.10;8.23;;;10.90;99.90;;;;;;5075243;28;20440;-83
2022/07/12 09:27:33;;;;;;;19.90;13.27;;;10.80;99.90;;;;;;5075662;28;20431;-88
2022/07/12 09:30:02;;;;;;;26.90;20.95;;;10.80;99.90;;;;;;5074868;28;20378;-86
2022/07/12 09:39:01;;;;;;;19.77;13.05;;;10.90;99.90;;;;;;5074934;28;20435;-83
2022/07/12 09:41:28;;;;;;;16.67;11.32;;;10.80;99.90;;;;;;5074402;28;20860;-84
2022/07/12 09:43:56;;;;;;;19.63;11.47;;;10.80;99.90;;;;;;5074388;28;20385;-84
2022/07/12 09:46:24;;;;;;;17.37;12.20;;;10.80;99.90;;;;;;5074568;28;20485;-84
2022/07/12 09:48:52;;;;;;;20.50;12.88;;;10.80;99.90;;;;;;5074299;28;20889;-83
2022/07/12 09:51:21;;;;;;;17.40;11.95;;;10.80;99.90;;;;;;5074497;28;20914;-86
2022/07/12 09:57:32;;;;;;;13.57;10.68;;;10.70;99.90;;;;;;5074578;28;20381;-83
2022/07/12 10:00:00;;;;;;;14.10;10.65;;;10.60;99.90;;;;;;5074390;28;20431;-84
2022/07/12 10:02:28;;;;;;;16.20;9.82;;;10.60;99.90;;;;;;5074027;28;20373;-82
2022/07/12 10:04:55;;;;;;;12.07;8.82;;;10.50;99.90;;;;;;5073876;28;20390;-85
2022/07/12 10:07:23;;;;;;;12.38;9.30;;;10.50;99.90;;;;;;5073980;28;20382;-86
2022/07/12 10:09:55;;;;;;;13.80;9.40;;;10.50;99.90;;;;;;5072969;28;20469;-84
2022/07/12 10:12:24;;;;;;;10.43;8.80;;;10.50;99.90;;;;;;5075397;28;20378;-92
2022/07/12 10:18:18;;;;;;;10.63;8.30;;;10.40;99.90;;;;;;5073726;28;20419;-86
2022/07/12 10:20:47;;;;;;;10.98;8.38;;;10.50;99.90;;;;;;5073793;28;20406;-83
2022/07/12 10:23:36;;;;;;;12.68;8.68;;;10.40;99.90;;;;;;5073458;28;20397;-84
2022/07/12 10:26:38;;;;;;;10.38;8.10;;;10.40;99.90;;;;;;5074091;28;20890;-83
2022/07/12 10:29:07;;;;;;;10.98;8.38;;;10.40;99.90;;;;;;5051954;28;20450;-89
2022/07/12 10:31:40;;;;;;;10.00;8.15;;;10.30;99.90;;;;;;5051758;28;20890;-83
2022/07/12 10:34:12;;;;;;;10.88;8.02;;;10.30;99.90;;;;;;5051777;28;20891;-90
2022/07/12 10:36:57;;;;;;;11.90;8.60;;;10.30;99.90;;;;;;5052228;28;20376;-84
2022/07/12 10:39:28;;;;;;;16.57;9.60;;;10.30;99.90;;;;;;5052265;28;20400;-85
2022/07/12 10:42:15;;;;;;;12.95;8.85;;;10.20;99.90;;;;;;5052412;28;20383;-87
2022/07/12 10:44:46;;;;;;;10.07;8.45;;;10.10;99.90;;;;;;5052817;28;20376;-85
2022/07/12 10:47:16;;;;;;;13.05;9.50;;;10.10;99.90;;;;;;5053088;28;20382;-90
2022/07/12 10:49:53;;;;;;;13.70;11.43;;;10.00;99.90;;;;;;5055508;28;20386;-88
2022/07/12 10:52:26;;;;;;;16.10;11.35;;;10.00;99.90;;;;;;5054450;28;20402;-89
2022/07/12 10:54:56;;;;;;;11.23;8.27;;;10.00;99.90;;;;;;5052634;28;20386;-87
2022/07/12 10:57:43;;;;;;;13.18;8.40;;;10.00;99.90;;;;;;5051936;28;20428;-89
2022/07/12 11:00:11;;;;;;;22.73;17.63;;;10.00;99.90;;;;;;5052612;28;20372;-89
2022/07/12 11:02:39;;;;;;;16.27;12.60;;;10.10;99.90;;;;;;5052519;28;20467;-83
2022/07/12 11:05:08;;;;;;;12.73;10.68;;;10.20;99.90;;;;;;5056507;28;20807;-85
2022/07/12 11:07:35;;;;;;;14.25;9.80;;;10.20;99.90;;;;;;5075192;28;20435;-89
2022/07/12 11:10:03;;;;;;;14.73;10.13;;;10.20;99.90;;;;;;5074127;28;20409;-83
2022/07/12 11:12:31;;;;;;;16.40;10.02;;;10.20;99.90;;;;;;5074314;28;20473;-86
2022/07/12 11:15:03;;;;;;;12.63;9.67;;;10.30;99.90;;;;;;5074638;28;20921;-85
2022/07/12 11:17:32;;;;;;;13.88;9.43;;;10.20;99.90;;;;;;5077083;28;20453;-83
2022/07/12 11:20:10;;;;;;;11.65;8.23;;;10.20;99.90;;;;;;5076698;28;20374;-88
2022/07/12 11:22:40;;;;;;;11.32;8.57;;;10.20;99.90;;;;;;5074836;28;20416;-84
2022/07/12 11:25:09;;;;;;;10.20;7.73;;;10.20;99.90;;;;;;5074820;28;20881;-83
2022/07/12 11:27:37;;;;;;;12.88;9.32;;;10.20;99.90;;;;;;5074818;28;20382;-83
2022/07/12 11:30:06;;;;;;;11.88;9.20;;;10.20;99.90;;;;;;5074351;28;20731;-84
2022/07/12 11:32:43;;;;;;;13.80;10.05;;;10.30;99.90;;;;;;5074684;28;20408;-85
2022/07/12 11:35:28;;;;;;;11.03;9.17;;;10.30;99.90;;;;;;5073261;28;20482;-83
2022/07/12 11:37:56;;;;;;;8.02;6.50;;;10.30;99.90;;;;;;5075429;28;20378;-84
2022/07/12 11:40:29;;;;;;;9.32;6.20;;;10.30;99.90;;;;;;5075829;28;20382;-85
2022/07/12 11:42:58;;;;;;;10.07;6.68;;;10.30;99.90;;;;;;5075931;28;20365;-84
2022/07/12 11:45:30;;;;;;;7.63;5.50;;;10.40;99.90;;;;;;5074667;28;20505;-85
2022/07/12 11:48:01;;;;;;;6.70;4.93;;;10.40;99.90;;;;;;5072801;28;20377;-85
2022/07/12 11:50:30;;;;;;;5.57;4.30;;;10.60;99.90;;;;;;5077152;28;20381;-84
2022/07/12 11:52:57;;;;;;;9.95;6.25;;;10.40;99.90;;;;;;5077426;28;20370;-89
2022/07/12 11:55:25;;;;;;;9.40;6.78;;;10.40;99.90;;;;;;5077877;28;20866;-89
2022/07/12 11:58:03;;;;;;;9.07;6.35;;;10.40;99.90;;;;;;5077467;28;20373;-91
2022/07/12 12:00:30;;;;;;;9.35;7.28;;;10.40;99.90;;;;;;5078282;28;20377;-91
2022/07/12 12:02:57;;;;;;;12.25;8.20;;;10.30;99.90;;;;;;5077320;28;20777;-92
2022/07/12 12:05:25;;;;;;;9.95;7.47;;;10.30;99.90;;;;;;5076929;28;20758;-89
2022/07/12 12:07:52;;;;;;;14.02;8.40;;;10.30;99.90;;;;;;5077532;28;20377;-90
2022/07/12 12:10:19;;;;;;;11.48;8.55;;;10.30;99.90;;;;;;5077455;28;20358;-83
2022/07/12 12:12:54;;;;;;;13.88;9.07;;;10.40;99.90;;;;;;5078033;28;20377;-84
2022/07/12 12:15:24;;;;;;;10.27;7.78;;;10.30;99.90;;;;;;5077703;28;20370;-83
2022/07/12 12:17:58;;;;;;;8.73;7.27;;;10.30;99.90;;;;;;5078111;28;20377;-89
2022/07/12 12:20:25;;;;;;;9.40;6.80;;;10.30;99.90;;;;;;5077330;28;20370;-89
2022/07/12 12:22:54;;;;;;;11.57;8.00;;;10.20;99.90;;;;;;5078564;28;20380;-86
2022/07/12 12:25:23;;;;;;;8.80;6.93;;;10.30;99.90;;;;;;5079237;28;20392;-90
2022/07/12 12:27:59;;;;;;;8.25;6.40;;;10.30;99.90;;;;;;5079706;28;20434;-86
2022/07/12 12:30:27;;;;;;;9.77;7.03;;;10.30;99.90;;;;;;5086234;28;20366;-89
2022/07/12 12:32:57;;;;;;;9.18;7.20;;;10.30;99.90;;;;;;5088987;28;21138;-82
2022/07/12 12:35:32;;;;;;;9.03;7.20;;;10.30;99.90;;;;;;5089331;28;20405;-83
2022/07/12 12:38:10;;;;;;;9.00;7.65;;;10.30;99.90;;;;;;5080881;28;20390;-87
2022/07/12 12:40:38;;;;;;;9.70;7.72;;;10.20;99.90;;;;;;5080056;28;20921;-89
2022/07/12 12:43:18;;;;;;;12.32;8.05;;;10.20;99.90;;;;;;5079044;28;20385;-87
2022/07/12 12:45:56;;;;;;;10.55;7.85;;;10.20;99.90;;;;;;5079868;28;20410;-88
2022/07/12 12:48:25;;;;;;;10.10;6.97;;;10.20;99.90;;;;;;5076338;28;20374;-82
2022/07/12 12:50:54;;;;;;;8.57;7.07;;;10.20;99.90;;;;;;5076429;28;20456;-81
2022/07/12 12:53:24;;;;;;;9.98;7.60;;;10.20;99.90;;;;;;5075754;28;20432;-88
2022/07/12 12:55:54;;;;;;;9.82;7.88;;;10.10;99.90;;;;;;5075076;28;20521;-83
2022/07/12 12:58:23;;;;;;;11.57;8.45;;;10.10;99.90;;;;;;5075474;28;20370;-82
2022/07/12 13:00:53;;;;;;;10.10;8.17;;;10.10;99.90;;;;;;5075109;28;20448;-82
2022/07/12 13:03:23;;;;;;;11.33;8.43;;;10.10;99.90;;;;;;5075017;28;20456;-81
2022/07/12 13:05:50;;;;;;;9.95;7.15;;;10.10;99.90;;;;;;5074586;28;21020;-82
2022/07/12 13:08:18;;;;;;;9.63;7.05;;;10.20;99.90;;;;;;5074829;28;20378;-88
2022/07/12 13:10:46;;;;;;;8.25;7.28;;;10.20;99.90;;;;;;5074756;28;20374;-87
2022/07/12 13:13:17;;;;;;;8.52;7.22;;;10.10;99.90;;;;;;5074651;28;20370;-83
2022/07/12 13:15:45;;;;;;;9.68;7.10;;;10.10;99.90;;;;;;5074885;28;20367;-89
2022/07/12 13:18:12;;;;;;;8.85;7.00;;;10.10;99.90;;;;;;5074362;28;20374;-85